Time;durP1;ratioP1;P1;durP2;ratioP2;P2;SDS_P1;SDS_P2;PMS_P1;PMS_P2;Temp;Humidity;BMP_temperature;BMP_pressure;BME280_temperature;BME280_humidity;BME280_pressure;Samples;Min_cycle;Max_cycle;Signal;HPM_P1;HPM_P2
2022/05/01 00:01:41;;;;;;;9.68;3.78;;;;;;;9.49;42.59;101174.63;5103328;28;20028;-61
2022/05/01 00:04:10;;;;;;;8.45;2.88;;;;;;;9.44;42.73;101177.16;5103050;28;20024;-60
2022/05/01 00:06:35;;;;;;;5.30;2.85;;;;;;;9.40;42.73;101176.28;5103449;28;20047;-60
2022/05/01 00:09:02;;;;;;;7.97;3.22;;;;;;;9.40;42.65;101178.88;5102713;28;20049;-60
2022/05/01 00:11:29;;;;;;;8.73;2.50;;;;;;;9.38;42.96;101182.28;5102961;28;20028;-60
2022/05/01 00:13:57;;;;;;;5.20;2.67;;;;;;;9.40;42.69;101180.59;5102794;28;20463;-59
2022/05/01 00:16:22;;;;;;;7.47;2.55;;;;;;;9.37;42.88;101178.84;5103221;28;20310;-60
2022/05/01 00:18:47;;;;;;;5.72;1.90;;;;;;;9.38;42.85;101182.28;5106470;28;20035;-60
2022/05/01 00:21:13;;;;;;;7.07;2.67;;;;;;;9.35;42.88;101185.75;5106659;28;20122;-60
2022/05/01 00:23:38;;;;;;;6.90;2.50;;;;;;;9.33;42.93;101178.81;5106882;28;20028;-60
2022/05/01 00:26:05;;;;;;;4.60;2.20;;;;;;;9.34;43.00;101186.59;5105317;28;20020;-60
2022/05/01 00:28:32;;;;;;;6.82;2.20;;;;;;;9.27;43.17;101180.47;5107020;28;20031;-60
2022/05/01 00:30:58;;;;;;;4.63;2.50;;;;;;;9.20;43.42;101183.84;5106950;28;20106;-59
2022/05/01 00:36:25;;;;;;;9.25;2.67;;;;;;;9.12;43.73;101183.78;5107003;28;20063;-61
2022/05/01 00:38:51;;;;;;;5.68;2.35;;;;;;;9.01;44.01;101177.66;5106689;28;20024;-61
2022/05/01 00:41:17;;;;;;;3.63;2.00;;;;;;;8.98;44.08;101182.78;5106763;28;20023;-61
2022/05/01 00:44:05;;;;;;;7.20;2.63;;;;;;;8.92;44.00;101181.00;5106554;28;20035;-59
2022/05/01 00:46:32;;;;;;;3.83;2.15;;;;;;;8.88;44.16;101184.41;5106459;28;20024;-60
2022/05/01 00:49:00;;;;;;;3.30;1.90;;;;;;;8.83;43.94;101178.31;5106219;28;20541;-60
2022/05/01 00:51:28;;;;;;;4.38;2.38;;;;;;;8.82;43.87;101182.59;5106305;28;20055;-59
2022/05/01 00:53:54;;;;;;;3.25;1.60;;;;;;;8.78;43.75;101188.59;5106265;28;20119;-59
2022/05/01 00:56:20;;;;;;;5.38;2.25;;;;;;;8.74;43.68;101185.09;5106404;28;20077;-58
2022/05/01 00:58:46;;;;;;;5.72;1.77;;;;;;;8.72;43.75;101189.38;5106390;28;20020;-59
2022/05/01 01:01:13;;;;;;;6.30;1.70;;;;;;;8.70;43.50;101182.47;5106128;28;20028;-58
2022/05/01 01:03:39;;;;;;;4.30;1.88;;;;;;;8.73;43.38;101187.66;5106215;28;20092;-59
2022/05/01 01:06:05;;;;;;;4.18;1.70;;;;;;;8.72;43.54;101185.94;5105886;28;20015;-59
2022/05/01 01:08:30;;;;;;;3.35;1.70;;;;;;;8.71;43.18;101179.88;5106044;28;20052;-59
2022/05/01 01:10:56;;;;;;;3.72;1.75;;;;;;;8.74;43.20;101189.44;5105885;28;20104;-60
2022/05/01 01:13:29;;;;;;;4.35;2.28;;;;;;;8.75;43.39;101185.97;5105949;28;20475;-60
2022/05/01 01:15:55;;;;;;;4.80;2.03;;;;;;;8.74;43.47;101182.50;5105947;28;20024;-60
2022/05/01 01:18:22;;;;;;;3.88;2.20;;;;;;;8.75;43.35;101183.41;5105752;28;20026;-59
2022/05/01 01:20:48;;;;;;;4.43;2.65;;;;;;;8.74;43.47;101184.25;5105395;28;20048;-59
2022/05/01 01:23:14;;;;;;;4.22;2.47;;;;;;;8.77;43.35;101184.28;5104428;28;20012;-59
2022/05/01 01:25:40;;;;;;;4.40;1.90;;;;;;;8.78;43.38;101186.91;5105554;28;20035;-60
2022/05/01 01:28:08;;;;;;;3.95;1.48;;;;;;;8.79;43.44;101192.91;5105632;28;20024;-60
2022/05/01 01:33:21;;;;;;;2.85;1.80;;;;;;;8.78;43.50;101191.19;5105393;28;20100;-60
2022/05/01 01:35:50;;;;;;;2.63;1.55;;;;;;;8.75;43.54;101191.16;5105440;28;20111;-60
2022/05/01 01:38:16;;;;;;;4.10;1.75;;;;;;;8.65;43.84;101172.94;5105525;28;20024;-59
2022/05/01 01:40:47;;;;;;;3.50;2.05;;;;;;;8.76;43.88;101188.59;5105274;28;20024;-59
2022/05/01 01:43:13;;;;;;;4.60;1.80;;;;;;;8.76;43.77;101185.13;5105360;28;20028;-61
2022/05/01 01:45:38;;;;;;;5.72;1.98;;;;;;;8.76;43.76;101188.59;5105235;28;20098;-61
2022/05/01 01:48:12;;;;;;;4.25;1.80;;;;;;;8.74;43.73;101177.34;5105145;28;20052;-60
2022/05/01 01:50:37;;;;;;;4.30;2.03;;;;;;;8.73;43.88;101182.50;5105144;28;20036;-60
2022/05/01 01:53:03;;;;;;;5.38;1.92;;;;;;;8.71;44.02;101179.88;5104773;28;20020;-61
2022/05/01 01:55:31;;;;;;;3.03;1.90;;;;;;;8.70;43.89;101182.47;5104164;28;20031;-61
2022/05/01 01:57:57;;;;;;;5.75;2.00;;;;;;;8.69;43.97;101186.75;5104876;28;20035;-60
2022/05/01 02:00:22;;;;;;;4.78;2.15;;;;;;;8.64;44.01;101184.13;5105155;28;20024;-60
2022/05/01 02:02:47;;;;;;;4.75;1.90;;;;;;;8.61;44.09;101178.91;5105102;28;20079;-59
2022/05/01 02:05:13;;;;;;;6.13;2.20;;;;;;;8.57;44.26;101179.72;5104555;28;20031;-60
2022/05/01 02:07:39;;;;;;;4.35;2.00;;;;;;;8.51;44.63;101177.91;5105042;28;20016;-59
2022/05/01 02:10:05;;;;;;;5.65;1.98;;;;;;;8.46;44.54;101179.56;5104829;28;20108;-60
2022/05/01 02:12:31;;;;;;;5.75;1.92;;;;;;;8.40;44.62;101182.94;5104936;28;20100;-60
2022/05/01 02:14:56;;;;;;;5.70;2.47;;;;;;;8.36;44.65;101181.16;5104845;28;20023;-59
2022/05/01 02:17:21;;;;;;;6.70;2.50;;;;;;;8.30;44.86;101174.19;5104781;28;20065;-60
2022/05/01 02:19:47;;;;;;;3.30;2.67;;;;;;;8.26;44.94;101176.72;5104556;28;20035;-59
2022/05/01 02:22:15;;;;;;;3.92;2.30;;;;;;;8.19;45.14;101170.59;5104929;28;20473;-59
2022/05/01 02:24:40;;;;;;;4.57;2.40;;;;;;;8.12;45.44;101172.22;5104749;28;20024;-59
2022/05/01 02:27:06;;;;;;;5.72;3.72;;;;;;;8.09;45.79;101172.16;5104740;28;20027;-60
2022/05/01 02:29:31;;;;;;;6.97;4.28;;;;;;;8.03;45.77;101178.13;5104431;28;20024;-59
2022/05/01 02:31:56;;;;;;;6.45;4.63;;;;;;;8.02;45.61;101172.94;5104700;28;20016;-60
2022/05/01 02:34:23;;;;;;;7.47;3.47;;;;;;;7.99;45.75;101168.56;5104619;28;20039;-59
2022/05/01 02:36:55;;;;;;;4.65;2.50;;;;;;;7.98;45.86;101174.59;5104981;28;20039;-60
2022/05/01 02:39:22;;;;;;;5.00;2.60;;;;;;;7.96;45.82;101168.53;5102894;28;20020;-60
2022/05/01 02:41:47;;;;;;;3.75;2.10;;;;;;;7.94;46.09;101165.94;5104373;28;20039;-58
2022/05/01 02:44:13;;;;;;;3.47;1.80;;;;;;;7.93;45.87;101166.78;5104213;28;20024;-60
2022/05/01 02:46:38;;;;;;;5.00;1.80;;;;;;;7.93;46.04;101160.72;5104249;28;20042;-61
2022/05/01 02:49:06;;;;;;;5.05;1.80;;;;;;;7.95;45.88;101161.63;5103910;28;20040;-59
2022/05/01 02:51:32;;;;;;;1.85;1.00;;;;;;;7.91;45.42;101150.38;5104113;28;20039;-58
2022/05/01 02:53:58;;;;;;;4.57;2.03;;;;;;;7.96;45.80;101158.19;5104210;28;20028;-60
2022/05/01 02:56:24;;;;;;;4.72;2.00;;;;;;;7.97;45.83;101157.34;5104182;28;20020;-59
2022/05/01 02:58:50;;;;;;;3.97;1.88;;;;;;;7.99;45.79;101162.53;5104215;28;20107;-59
2022/05/01 03:01:15;;;;;;;4.57;2.40;;;;;;;7.98;45.70;101151.34;5102731;28;20024;-60
2022/05/01 03:03:40;;;;;;;3.70;1.92;;;;;;;7.89;45.85;101139.13;5104104;28;20055;-59
2022/05/01 03:06:06;;;;;;;8.15;1.83;;;;;;;8.01;45.81;101160.84;5103992;28;20020;-59
2022/05/01 03:08:31;;;;;;;3.65;2.08;;;;;;;7.98;46.09;101156.50;5104099;28;20194;-59
2022/05/01 03:10:56;;;;;;;5.65;2.05;;;;;;;7.93;46.14;101148.69;5103703;28;20024;-60
2022/05/01 03:13:22;;;;;;;2.88;1.52;;;;;;;7.94;46.09;101158.16;5102362;28;20063;-59
2022/05/01 03:15:47;;;;;;;2.80;1.70;;;;;;;7.91;46.31;101159.84;5103691;28;20026;-59
2022/05/01 03:23:40;;;;;;;4.35;1.42;;;;;;;7.92;45.99;101152.09;5103963;28;20081;-61
2022/05/01 03:26:06;;;;;;;3.35;1.33;;;;;;;7.95;46.05;101143.53;5103435;28;20032;-59
2022/05/01 03:28:32;;;;;;;4.90;2.00;;;;;;;7.97;46.03;101146.13;5103097;28;20035;-59
2022/05/01 03:30:57;;;;;;;5.93;1.63;;;;;;;7.97;46.11;101152.16;5102779;28;20027;-60
2022/05/01 03:33:24;;;;;;;3.50;1.20;;;;;;;7.94;45.83;101145.25;5102105;28;20107;-61
2022/05/01 03:35:50;;;;;;;4.47;1.60;;;;;;;7.98;46.06;101150.44;5103521;28;20073;-59
2022/05/01 03:38:16;;;;;;;2.55;1.55;;;;;;;8.00;46.27;101151.34;5103875;28;20020;-60
2022/05/01 03:40:47;;;;;;;3.75;1.55;;;;;;;8.01;46.18;101150.50;5101929;28;20114;-60
2022/05/01 03:43:15;;;;;;;1.85;1.42;;;;;;;8.01;46.34;101150.50;5103362;28;20028;-60
2022/05/01 03:45:40;;;;;;;2.50;1.52;;;;;;;8.00;46.51;101159.13;5103124;28;20036;-60
2022/05/01 03:48:06;;;;;;;3.10;1.70;;;;;;;8.01;46.54;101155.66;5103147;28;20400;-60
2022/05/01 03:50:31;;;;;;;3.80;2.08;;;;;;;8.04;46.69;101150.53;5102905;28;20020;-59
2022/05/01 03:52:56;;;;;;;3.75;1.60;;;;;;;8.08;46.70;101157.50;5102837;28;20080;-60
2022/05/01 03:55:22;;;;;;;3.33;1.65;;;;;;;8.08;46.63;101154.03;5102999;28;20024;-59
2022/05/01 03:57:48;;;;;;;5.90;1.45;;;;;;;8.09;46.70;101148.00;5103192;28;20153;-59
2022/05/01 04:00:18;;;;;;;2.42;1.10;;;;;;;8.17;46.66;101161.94;5103122;28;20375;-60
2022/05/01 04:02:44;;;;;;;2.25;1.30;;;;;;;8.22;46.62;101156.81;5103318;28;20020;-59
2022/05/01 04:05:12;;;;;;;3.20;1.52;;;;;;;8.28;46.73;101159.47;5102863;28;20449;-60
2022/05/01 04:07:38;;;;;;;4.88;1.52;;;;;;;8.36;46.56;101159.59;5103069;28;20044;-61
2022/05/01 04:10:05;;;;;;;2.67;1.48;;;;;;;8.44;46.52;101163.13;5102908;28;20020;-60
2022/05/01 04:12:36;;;;;;;2.08;1.17;;;;;;;8.51;46.73;101157.22;5102938;28;20019;-60
2022/05/01 04:15:02;;;;;;;1.70;1.30;;;;;;;8.62;46.45;101165.13;5102920;28;20030;-61
2022/05/01 04:17:27;;;;;;;4.65;1.60;;;;;;;8.71;46.46;101156.59;5102994;28;20020;-60
2022/05/01 04:19:53;;;;;;;1.92;1.40;;;;;;;8.83;46.42;101157.59;5102779;28;20089;-61
2022/05/01 04:22:18;;;;;;;3.08;1.50;;;;;;;8.93;46.10;101157.69;5103153;28;20051;-61
2022/05/01 04:24:45;;;;;;;2.72;1.42;;;;;;;9.06;45.95;101165.59;5103015;28;20020;-60
2022/05/01 04:27:10;;;;;;;2.28;1.30;;;;;;;9.14;45.62;101168.25;5103010;28;20379;-60
2022/05/01 04:29:39;;;;;;;4.20;1.42;;;;;;;9.21;45.64;101159.69;5102740;28;20025;-60
2022/05/01 04:32:05;;;;;;;2.45;1.48;;;;;;;9.22;45.74;101160.59;5103074;28;20035;-61
2022/05/01 04:34:32;;;;;;;3.08;1.95;;;;;;;9.28;45.56;101164.06;5102608;28;20028;-60
2022/05/01 04:36:58;;;;;;;2.30;1.48;;;;;;;9.35;45.46;101165.00;5101809;28;20241;-61
2022/05/01 04:39:24;;;;;;;5.07;1.92;;;;;;;9.47;45.43;101165.97;5103000;28;20024;-61
2022/05/01 04:41:49;;;;;;;5.80;1.50;;;;;;;9.58;45.34;101174.72;5102643;28;20248;-60
2022/05/01 04:44:15;;;;;;;3.70;1.52;;;;;;;9.70;45.26;101173.03;5102678;28;20028;-59
2022/05/01 04:46:40;;;;;;;3.28;1.70;;;;;;;9.84;44.93;101170.56;5102652;28;20024;-60
2022/05/01 04:49:06;;;;;;;2.83;1.42;;;;;;;9.94;44.62;101171.47;5102283;28;20100;-59
2022/05/01 04:51:31;;;;;;;2.50;1.20;;;;;;;10.04;44.49;101168.09;5102744;28;20065;-60
2022/05/01 04:53:57;;;;;;;2.75;1.35;;;;;;;10.25;44.30;101171.69;5102779;28;20036;-58
2022/05/01 04:59:07;;;;;;;1.65;1.20;;;;;;;10.41;43.75;101168.28;5103046;28;20046;-59
2022/05/01 05:01:36;;;;;;;3.47;1.70;;;;;;;10.51;43.35;101173.56;5102700;28;20019;-59
2022/05/01 05:04:03;;;;;;;3.05;1.23;;;;;;;10.61;43.13;101169.25;5104290;28;20027;-59
2022/05/01 05:06:28;;;;;;;2.03;1.00;;;;;;;10.82;42.76;101185.78;5106095;28;20039;-60
2022/05/01 05:11:37;;;;;;;2.78;1.20;;;;;;;11.12;42.18;101186.72;5106272;28;20170;-59
2022/05/01 05:14:04;;;;;;;4.63;1.35;;;;;;;11.28;42.08;101187.63;5106222;28;20016;-59
2022/05/01 05:16:30;;;;;;;5.22;1.67;;;;;;;11.54;41.94;101186.78;5106262;28;20047;-60
2022/05/01 05:18:55;;;;;;;5.38;1.13;;;;;;;11.89;41.63;101191.09;5106261;28;20047;-60
2022/05/01 05:21:21;;;;;;;6.30;1.40;;;;;;;12.35;41.21;101189.28;5105814;28;20023;-60
2022/05/01 05:23:46;;;;;;;2.58;1.30;;;;;;;12.71;40.49;101196.09;5105990;28;20032;-60
2022/05/01 05:26:12;;;;;;;3.08;1.30;;;;;;;12.85;40.03;101193.41;5105928;28;20050;-60
2022/05/01 05:28:37;;;;;;;1.58;1.02;;;;;;;12.90;39.83;101194.25;5105560;28;20489;-60
2022/05/01 05:31:03;;;;;;;3.42;1.10;;;;;;;12.83;39.46;101196.03;5105154;28;20050;-59
2022/05/01 05:33:29;;;;;;;1.48;0.90;;;;;;;12.86;38.96;101195.16;5105068;28;20460;-60
2022/05/01 05:35:54;;;;;;;2.63;1.23;;;;;;;12.78;38.54;101203.00;5105416;28;20501;-60
2022/05/01 05:38:20;;;;;;;3.03;1.10;;;;;;;12.63;38.58;101188.31;5106108;28;20212;-60
2022/05/01 05:40:45;;;;;;;2.47;1.15;;;;;;;12.52;38.33;101197.03;5105554;28;20488;-59
2022/05/01 05:43:10;;;;;;;1.77;1.13;;;;;;;12.31;38.58;101200.59;5105689;28;20039;-59
2022/05/01 05:45:37;;;;;;;1.75;0.98;;;;;;;12.09;38.91;101184.16;5105592;28;20016;-60
2022/05/01 05:48:03;;;;;;;2.80;0.95;;;;;;;12.10;38.87;101197.16;5105107;28;20040;-61
2022/05/01 05:50:29;;;;;;;1.85;1.10;;;;;;;12.04;39.03;101199.75;5103995;28;20119;-61
2022/05/01 05:52:54;;;;;;;3.15;1.20;;;;;;;12.02;39.19;101211.88;5105551;28;20039;-59
2022/05/01 05:55:20;;;;;;;2.58;1.40;;;;;;;12.06;39.27;101202.34;5103868;28;20087;-59
2022/05/01 05:57:45;;;;;;;3.25;1.10;;;;;;;12.07;39.05;101204.94;5105551;28;20056;-60
2022/05/01 06:00:11;;;;;;;1.52;1.05;;;;;;;12.07;38.95;101210.16;5105484;28;20012;-60
2022/05/01 06:02:36;;;;;;;2.00;1.65;;;;;;;12.14;38.79;101209.28;5105572;28;20047;-60
2022/05/01 06:05:02;;;;;;;3.58;1.00;;;;;;;12.14;38.48;101211.91;5105026;28;20027;-59
2022/05/01 06:07:27;;;;;;;2.55;1.30;;;;;;;12.02;38.96;101207.56;5105440;28;20027;-60
2022/05/01 06:09:56;;;;;;;2.03;1.00;;;;;;;11.90;38.93;101207.59;5105221;28;20069;-61
2022/05/01 06:12:21;;;;;;;1.35;0.85;;;;;;;11.86;39.14;101216.25;5103908;28;20047;-60
2022/05/01 06:14:47;;;;;;;1.75;1.00;;;;;;;11.93;38.91;101217.13;5104723;28;20024;-60
2022/05/01 06:17:12;;;;;;;1.40;0.90;;;;;;;11.90;38.55;101218.00;5104938;28;20020;-60
2022/05/01 06:19:39;;;;;;;2.08;1.00;;;;;;;11.81;38.33;101207.56;5104979;28;20483;-60
2022/05/01 06:22:04;;;;;;;2.55;1.20;;;;;;;11.82;38.17;101217.13;5105132;28;20020;-60
2022/05/01 06:24:30;;;;;;;3.78;1.30;;;;;;;11.67;38.76;101213.66;5105038;28;20045;-61
2022/05/01 06:26:55;;;;;;;3.30;1.17;;;;;;;11.83;39.03;101221.44;5105018;28;20490;-60
2022/05/01 06:29:20;;;;;;;2.67;1.20;;;;;;;11.88;38.72;101219.72;5104897;28;20031;-61
2022/05/01 06:31:46;;;;;;;2.17;1.10;;;;;;;11.93;38.62;101211.91;5104865;28;20020;-60
2022/05/01 06:34:12;;;;;;;1.52;0.80;;;;;;;11.94;38.64;101218.84;5104961;28;20085;-63
2022/05/01 06:36:38;;;;;;;1.60;1.02;;;;;;;11.93;38.86;101214.50;5104745;28;20020;-61
2022/05/01 06:39:03;;;;;;;2.17;1.20;;;;;;;12.07;38.75;101214.47;5104655;28;20077;-59
2022/05/01 06:41:28;;;;;;;1.15;0.80;;;;;;;12.17;38.29;101204.97;5104748;28;20035;-60
2022/05/01 06:43:54;;;;;;;3.10;1.00;;;;;;;12.23;38.69;101211.03;5104454;28;20020;-59
2022/05/01 06:46:19;;;;;;;2.55;1.20;;;;;;;12.38;38.62;101212.69;5102990;28;20043;-61
2022/05/01 06:48:44;;;;;;;2.10;1.05;;;;;;;12.71;38.55;101209.13;5104363;28;20050;-60
2022/05/01 06:51:10;;;;;;;2.63;1.08;;;;;;;12.98;37.95;101207.25;5104319;28;20088;-65
2022/05/01 06:53:36;;;;;;;2.65;1.25;;;;;;;13.27;37.62;101214.88;5104902;28;20024;-65
2022/05/01 06:56:01;;;;;;;2.25;1.00;;;;;;;13.49;37.20;101206.91;5104328;28;20080;-65
2022/05/01 06:58:26;;;;;;;2.08;1.23;;;;;;;14.12;36.23;101207.25;5104394;28;20403;-65
2022/05/01 07:00:54;;;;;;;2.78;1.20;;;;;;;14.75;36.19;101209.13;5104175;28;20112;-65
2022/05/01 07:03:20;;;;;;;1.92;1.00;;;;;;;15.27;35.24;101208.47;5104309;28;20026;-64
2022/05/01 07:05:46;;;;;;;2.55;1.38;;;;;;;15.77;34.54;101205.91;5104201;28;20048;-65
2022/05/01 07:08:11;;;;;;;2.88;1.00;;;;;;;16.22;33.40;101206.88;5104274;28;20032;-65
2022/05/01 07:10:37;;;;;;;2.70;1.20;;;;;;;16.34;33.04;101209.25;5103683;28;20040;-66
2022/05/01 07:13:02;;;;;;;1.77;0.82;;;;;;;16.36;32.99;101219.69;5104236;28;20538;-66
2022/05/01 07:15:28;;;;;;;4.68;1.05;;;;;;;16.33;31.83;101218.00;5103881;28;20024;-65
2022/05/01 07:17:53;;;;;;;2.40;1.00;;;;;;;15.97;32.27;101216.03;5103932;28;20152;-64
2022/05/01 07:20:18;;;;;;;2.88;0.90;;;;;;;15.73;32.79;101217.31;5103373;28;20115;-64
2022/05/01 07:22:44;;;;;;;3.17;1.20;;;;;;;15.65;33.01;101208.72;5103753;28;20020;-65
2022/05/01 07:25:09;;;;;;;3.20;1.15;;;;;;;15.63;32.62;101218.34;5103483;28;20042;-64
2022/05/01 07:27:35;;;;;;;3.33;1.10;;;;;;;15.47;32.03;101216.00;5102223;28;20075;-62
2022/05/01 07:30:00;;;;;;;4.18;0.90;;;;;;;15.27;32.78;101217.16;5102333;28;20027;-62
2022/05/01 07:32:25;;;;;;;2.60;0.95;;;;;;;15.22;32.89;101213.78;5103378;28;20055;-64
2022/05/01 07:34:51;;;;;;;3.25;1.10;;;;;;;15.32;33.16;101217.97;5103257;28;20024;-61
2022/05/01 07:37:18;;;;;;;1.27;0.77;;;;;;;15.87;33.12;101219.69;5103607;28;20043;-62
2022/05/01 07:39:43;;;;;;;1.92;1.05;;;;;;;16.32;32.34;101216.31;5103281;28;20046;-63
2022/05/01 07:42:10;;;;;;;2.53;0.90;;;;;;;16.52;31.55;101217.63;5103267;28;20032;-64
2022/05/01 07:44:35;;;;;;;3.95;1.17;;;;;;;16.69;31.30;101229.53;5103234;28;20039;-64
2022/05/01 07:47:01;;;;;;;3.25;0.93;;;;;;;17.04;30.03;101220.06;5103254;28;20028;-64
2022/05/01 07:49:26;;;;;;;2.15;0.80;;;;;;;17.29;30.55;101226.50;5102963;28;20044;-64
2022/05/01 07:51:51;;;;;;;3.17;0.85;;;;;;;18.16;29.49;101221.72;5103055;28;20012;-63
2022/05/01 07:54:17;;;;;;;1.48;0.90;;;;;;;19.30;27.55;101226.31;5103204;28;20024;-63
2022/05/01 07:56:42;;;;;;;1.13;0.60;;;;;;;19.95;25.85;101222.47;5103247;28;20103;-63
2022/05/01 07:59:08;;;;;;;1.83;0.95;;;;;;;20.17;24.63;101221.72;5103432;28;20024;-64
2022/05/01 08:01:34;;;;;;;2.15;0.80;;;;;;;20.04;24.75;101219.53;5103158;28;20387;-64
2022/05/01 08:06:43;;;;;;;1.42;0.75;;;;;;;19.93;23.82;101224.28;5102855;28;20031;-64
2022/05/01 08:09:09;;;;;;;1.20;0.70;;;;;;;19.50;23.58;101223.97;5101515;28;20012;-64
2022/05/01 08:11:34;;;;;;;2.22;0.60;;;;;;;19.17;23.86;101225.00;5102908;28;20024;-63
2022/05/01 08:14:00;;;;;;;2.50;0.65;;;;;;;18.63;24.34;101220.44;5103212;28;20073;-63
2022/05/01 08:16:29;;;;;;;0.95;0.68;;;;;;;18.00;24.40;101223.03;5102830;28;20060;-64
2022/05/01 08:21:38;;;;;;;2.08;0.63;;;;;;;17.08;25.38;101226.97;5102898;28;20057;-64
2022/05/01 08:24:03;;;;;;;2.88;1.10;;;;;;;16.90;25.13;101222.97;5102929;28;20110;-64
2022/05/01 08:26:33;;;;;;;1.70;0.70;;;;;;;16.60;25.45;101223.59;5102896;28;20043;-63
2022/05/01 08:28:59;;;;;;;1.42;0.60;;;;;;;16.64;25.49;101226.16;5103082;28;20088;-64
2022/05/01 08:31:24;;;;;;;0.60;0.50;;;;;;;16.68;25.14;101231.28;5102458;28;20012;-64
2022/05/01 08:33:50;;;;;;;1.95;0.77;;;;;;;16.56;25.34;101223.69;5102520;28;20031;-64
2022/05/01 08:36:15;;;;;;;2.92;0.70;;;;;;;16.56;24.68;101224.56;5102135;28;20059;-63
2022/05/01 08:38:42;;;;;;;2.63;0.55;;;;;;;16.46;24.16;101228.25;5103886;28;20055;-64
2022/05/01 08:41:08;;;;;;;1.20;0.77;;;;;;;16.33;25.32;101220.63;5106607;28;20021;-64
2022/05/01 08:43:35;;;;;;;1.05;0.63;;;;;;;16.55;24.89;101220.19;5106919;28;20456;-64
2022/05/01 08:46:23;;;;;;;1.40;0.82;;;;;;;16.51;25.25;101222.91;5106696;28;20036;-64
2022/05/01 08:49:03;;;;;;;1.63;0.55;;;;;;;16.57;24.70;101220.16;5106933;28;20044;-64
2022/05/01 08:51:40;;;;;;;2.60;0.80;;;;;;;16.94;24.80;101221.16;5106543;28;20036;-63
2022/05/01 08:54:10;;;;;;;0.93;0.60;;;;;;;17.86;23.43;101218.16;5106754;28;20043;-63
2022/05/01 08:56:40;;;;;;;2.58;0.68;;;;;;;17.60;23.09;101217.91;5106960;28;20054;-64
2022/05/01 08:59:09;;;;;;;1.77;0.70;;;;;;;17.27;23.57;101218.66;5106648;28;20103;-63
2022/05/01 09:01:36;;;;;;;1.52;0.70;;;;;;;17.50;23.76;101225.13;5106332;28;20123;-64
2022/05/01 09:04:02;;;;;;;0.93;0.50;;;;;;;17.77;23.94;101206.97;5106355;28;20200;-63
2022/05/01 09:06:28;;;;;;;1.58;0.70;;;;;;;18.35;23.72;101210.72;5106155;28;20035;-63
2022/05/01 09:08:54;;;;;;;1.23;0.65;;;;;;;18.73;22.78;101215.75;5106491;28;20028;-63
2022/05/01 09:14:04;;;;;;;0.70;0.50;;;;;;;17.54;23.24;101224.16;5106394;28;20031;-63
2022/05/01 09:16:30;;;;;;;3.35;0.68;;;;;;;17.05;23.57;101218.28;5106348;28;20047;-64
2022/05/01 09:18:55;;;;;;;1.17;0.77;;;;;;;16.69;24.09;101214.66;5106151;28;20035;-63
2022/05/01 09:21:20;;;;;;;3.05;0.85;;;;;;;16.52;23.65;101209.78;5105836;28;20044;-64
2022/05/01 09:23:47;;;;;;;2.60;0.60;;;;;;;16.08;24.23;101217.63;5106260;28;20035;-63
2022/05/01 09:26:18;;;;;;;1.80;0.90;;;;;;;15.76;24.79;101208.53;5106097;28;20024;-64
2022/05/01 09:28:51;;;;;;;2.22;0.95;;;;;;;15.49;25.40;101206.38;5106209;28;20028;-64
2022/05/01 09:31:37;;;;;;;2.92;0.75;;;;;;;15.50;25.62;101202.88;5104493;28;20102;-64
2022/05/01 09:34:29;;;;;;;0.90;0.63;;;;;;;15.70;25.29;101217.38;5105627;28;20039;-64
2022/05/01 09:36:57;;;;;;;1.85;0.70;;;;;;;15.39;25.88;101216.13;5105646;28;20521;-63
2022/05/01 09:39:25;;;;;;;1.48;1.00;;;;;;;15.23;26.39;101218.09;5105850;28;20472;-64
2022/05/01 09:41:52;;;;;;;2.25;0.82;;;;;;;15.30;26.50;101213.66;5106070;28;20111;-63
2022/05/01 09:44:19;;;;;;;2.72;1.00;;;;;;;15.41;28.56;101210.88;5105671;28;20032;-65
2022/05/01 09:46:46;;;;;;;2.28;1.27;;;;;;;15.24;29.70;101219.81;5105572;28;20427;-64
2022/05/01 09:49:16;;;;;;;4.05;1.00;;;;;;;15.27;30.03;101205.84;5105536;28;20151;-65
2022/05/01 09:51:52;;;;;;;2.00;1.10;;;;;;;15.46;30.19;101222.97;5104695;28;20050;-64
2022/05/01 09:54:25;;;;;;;3.70;0.95;;;;;;;15.66;30.15;101218.31;5105553;28;20020;-63
2022/05/01 09:56:57;;;;;;;2.65;1.02;;;;;;;15.86;29.99;101213.59;5105420;28;20051;-64
2022/05/01 09:59:23;;;;;;;;;;;;;;;16.10;29.62;101211.44;5105985;28;20474;-65
2022/05/01 10:02:02;;;;;;;2.92;0.85;;;;;;;16.22;29.79;101213.00;5105451;28;19934;-63
2022/05/01 10:04:29;;;;;;;2.03;0.82;;;;;;;16.26;29.99;101216.41;5105299;28;20088;-64
2022/05/01 10:06:56;;;;;;;1.77;0.85;;;;;;;16.23;30.42;101219.94;5105516;28;20020;-64
2022/05/01 10:09:24;;;;;;;2.47;1.27;;;;;;;16.23;30.67;101219.06;5103813;28;20011;-63
2022/05/01 10:11:55;;;;;;;2.17;1.13;;;;;;;16.30;30.79;101214.59;5105313;28;20024;-64
2022/05/01 10:14:21;;;;;;;1.50;0.90;;;;;;;16.39;30.93;101218.78;5105051;28;20023;-63
2022/05/01 10:16:47;;;;;;;1.98;1.08;;;;;;;16.35;31.03;101200.53;5105090;28;20067;-62
2022/05/01 10:19:14;;;;;;;3.20;1.10;;;;;;;16.51;30.88;101220.28;5103846;28;20046;-63
2022/05/01 10:21:46;;;;;;;1.85;0.93;;;;;;;16.54;31.02;101220.22;5104927;28;20046;-63
2022/05/01 10:24:12;;;;;;;2.30;1.08;;;;;;;16.57;31.16;101223.66;5105154;28;20028;-62
2022/05/01 10:26:44;;;;;;;3.58;1.55;;;;;;;16.57;31.14;101221.03;5104733;28;20066;-63
2022/05/01 10:29:35;;;;;;;3.55;1.30;;;;;;;16.52;30.94;101216.78;5104921;28;20065;-64
2022/05/01 10:32:42;;;;;;;2.97;1.13;;;;;;;16.44;30.71;101216.91;5105052;28;20076;-63
2022/05/01 10:35:13;;;;;;;4.05;1.10;;;;;;;16.53;31.39;101215.88;5093705;28;20051;-63
2022/05/01 10:38:07;;;;;;;2.13;1.20;;;;;;;16.58;30.74;101212.25;5104917;28;20045;-63
2022/05/01 10:40:33;;;;;;;2.70;1.20;;;;;;;16.60;30.44;101220.09;5104493;28;20271;-64
2022/05/01 10:43:31;;;;;;;1.60;1.00;;;;;;;16.62;30.05;101214.81;5104697;28;20032;-63
2022/05/01 10:46:01;;;;;;;1.58;1.17;;;;;;;16.57;30.29;101212.31;5104423;28;20243;-65
2022/05/01 10:48:37;;;;;;;2.50;1.08;;;;;;;16.64;30.33;101215.66;5104645;28;20055;-63
2022/05/01 10:51:27;;;;;;;3.17;1.20;;;;;;;16.71;31.68;101214.63;5104220;28;20023;-64
2022/05/01 10:54:17;;;;;;;3.08;1.25;;;;;;;16.54;32.60;101207.13;5104609;28;20052;-64
2022/05/01 10:56:45;;;;;;;1.75;1.20;;;;;;;16.39;33.12;101213.56;5102798;28;20065;-63
2022/05/01 10:59:28;;;;;;;1.70;1.27;;;;;;;16.18;33.97;101208.69;5104273;28;20020;-62
2022/05/01 11:01:55;;;;;;;2.88;1.50;;;;;;;16.06;34.57;101217.66;5104150;28;20128;-63
2022/05/01 11:04:21;;;;;;;2.35;1.20;;;;;;;15.92;35.35;101214.38;5103896;28;20365;-64
2022/05/01 11:06:50;;;;;;;4.22;2.15;;;;;;;15.86;35.88;101217.97;5103898;28;20093;-64
2022/05/01 11:09:20;;;;;;;5.40;1.60;;;;;;;15.78;36.34;101220.75;5103629;28;20032;-64
2022/05/01 11:11:45;;;;;;;4.70;1.70;;;;;;;15.63;37.21;101215.75;5103993;28;20050;-63
2022/05/01 11:14:13;;;;;;;4.47;1.75;;;;;;;15.58;37.44;101224.53;5103613;28;20095;-63
2022/05/01 11:16:54;;;;;;;3.30;1.50;;;;;;;15.47;37.45;101218.63;5103458;28;20032;-64
2022/05/01 11:19:20;;;;;;;4.13;1.90;;;;;;;15.36;38.40;101217.03;5103657;28;20020;-63
2022/05/01 11:21:49;;;;;;;8.50;2.05;;;;;;;15.26;38.50;101220.66;5103265;28;20058;-63
2022/05/01 11:24:15;;;;;;;3.35;1.92;;;;;;;15.19;39.13;101209.44;5103474;28;20027;-64
2022/05/01 11:27:17;;;;;;;4.10;1.60;;;;;;;15.13;38.87;101203.44;5103549;28;20054;-63
2022/05/01 11:30:07;;;;;;;2.63;1.55;;;;;;;15.23;38.80;101208.50;5098002;28;20039;-63
2022/05/01 11:32:48;;;;;;;4.78;1.70;;;;;;;15.53;37.89;101215.91;5103092;28;20102;-62
2022/05/01 11:35:14;;;;;;;3.75;1.92;;;;;;;15.69;37.07;101210.41;5103087;28;20047;-63
2022/05/01 11:37:50;;;;;;;6.40;1.80;;;;;;;15.81;37.13;101215.44;5103178;28;20043;-63
2022/05/01 11:40:20;;;;;;;3.25;1.65;;;;;;;15.96;36.39;101214.28;5103239;28;20058;-63
2022/05/01 11:42:46;;;;;;;3.58;1.90;;;;;;;16.04;36.14;101215.97;5103607;28;20204;-64
2022/05/01 11:45:12;;;;;;;2.45;1.45;;;;;;;16.15;36.05;101200.03;5103193;28;20027;-64
2022/05/01 11:47:37;;;;;;;1.80;1.10;;;;;;;16.41;34.21;101203.88;5102990;28;20080;-63
2022/05/01 11:50:03;;;;;;;2.47;1.17;;;;;;;16.57;32.83;101196.56;5101421;28;20352;-63
2022/05/01 11:52:30;;;;;;;1.75;1.00;;;;;;;16.59;31.99;101181.69;5103171;28;20034;-64
2022/05/01 11:55:06;;;;;;;5.95;1.10;;;;;;;16.80;31.80;101189.97;5101633;28;20028;-64
2022/05/01 12:03:13;;;;;;;2.35;1.10;;;;;;;17.23;31.90;101198.66;5103008;28;20115;-63